Time;durP1;ratioP1;P1;durP2;ratioP2;P2;SDS_P1;SDS_P2;PMS_P1;PMS_P2;Temp;Humidity;BMP_temperature;BMP_pressure;BME280_temperature;BME280_humidity;BME280_pressure;Samples;Min_cycle;Max_cycle;Signal;HPM_P1;HPM_P2
2023/05/22 00:02:27;;;;;;;5.82;3.70;;;;;;;19.98;78.19;101255.84;6192959;28;20045;-70
2023/05/22 00:05:29;;;;;;;4.63;3.55;;;;;;;19.95;77.59;101253.47;6228910;28;20053;-70
2023/05/22 00:08:30;;;;;;;7.28;3.70;;;;;;;19.89;77.63;101244.13;6230016;28;20054;-69
2023/05/22 00:11:33;;;;;;;7.13;4.70;;;;;;;19.87;77.90;101254.09;6230009;28;20042;-70
2023/05/22 00:14:36;;;;;;;7.03;4.50;;;;;;;19.87;77.74;101247.94;6230124;28;20046;-70
2023/05/22 00:17:37;;;;;;;6.88;3.90;;;;;;;19.84;77.96;101250.84;6226469;28;20435;-70
2023/05/22 00:20:39;;;;;;;4.95;3.60;;;;;;;19.82;77.55;101247.47;6229745;28;20042;-70
2023/05/22 00:23:41;;;;;;;5.40;3.63;;;;;;;19.81;78.67;101240.44;6229612;28;20415;-70
2023/05/22 00:26:42;;;;;;;7.07;3.70;;;;;;;19.71;77.82;101237.69;6227715;28;20065;-70
2023/05/22 00:29:45;;;;;;;7.32;4.07;;;;;;;19.70;78.40;101238.66;6220437;28;20482;-70
2023/05/22 00:32:46;;;;;;;7.10;3.88;;;;;;;19.70;78.00;101231.50;6214415;28;20065;-70
2023/05/22 00:35:48;;;;;;;6.13;3.72;;;;;;;19.71;78.33;101229.69;6229544;28;20046;-70
2023/05/22 00:38:49;;;;;;;5.72;3.67;;;;;;;19.71;78.29;101235.03;6229575;28;20053;-70
2023/05/22 00:41:51;;;;;;;6.75;4.10;;;;;;;19.61;78.37;101224.28;6221249;28;20065;-70
2023/05/22 00:44:53;;;;;;;6.53;3.53;;;;;;;19.58;79.20;101213.88;6229590;28;20045;-70
2023/05/22 00:47:54;;;;;;;4.75;3.28;;;;;;;19.55;79.39;101211.44;6222236;28;20054;-70
2023/05/22 00:50:59;;;;;;;6.50;3.60;;;;;;;19.48;79.16;101207.59;6204496;28;20050;-70
2023/05/22 00:54:00;;;;;;;5.20;3.38;;;;;;;19.43;79.93;101207.13;6204979;28;20054;-70
2023/05/22 00:57:02;;;;;;;7.90;3.83;;;;;;;19.40;80.10;101210.91;6204736;28;20076;-70
2023/05/22 01:00:09;;;;;;;4.70;3.67;;;;;;;19.38;80.00;101212.00;6208222;28;20462;-70
2023/05/22 01:03:11;;;;;;;5.78;3.30;;;;;;;19.33;80.21;101209.72;6220345;28;20249;-69
2023/05/22 01:06:13;;;;;;;5.10;3.60;;;;;;;19.30;80.44;101209.13;6229007;28;20050;-69
2023/05/22 01:09:14;;;;;;;5.53;3.50;;;;;;;19.24;81.12;101215.81;6228606;28;20054;-70
2023/05/22 01:12:27;;;;;;;5.10;3.70;;;;;;;19.17;81.66;101212.81;6228773;28;20045;-70
2023/05/22 01:15:39;;;;;;;4.50;3.50;;;;;;;19.13;81.91;101216.69;6227696;28;20054;-70
2023/05/22 01:18:46;;;;;;;7.88;4.18;;;;;;;19.06;81.70;101214.66;6228539;28;20093;-70
2023/05/22 01:21:59;;;;;;;4.82;3.47;;;;;;;19.04;82.08;101214.78;6228346;28;20053;-70
2023/05/22 01:25:16;;;;;;;6.38;3.83;;;;;;;18.99;81.83;101212.50;6228630;28;20427;-70
2023/05/22 01:28:36;;;;;;;5.90;4.15;;;;;;;18.94;81.70;101211.16;6228198;28;20046;-69
2023/05/22 01:31:41;;;;;;;5.82;3.75;;;;;;;18.94;82.17;101211.16;6220270;28;20046;-69
2023/05/22 01:34:44;;;;;;;5.53;3.80;;;;;;;18.90;82.18;101209.75;6228202;28;20053;-70
2023/05/22 01:37:47;;;;;;;6.63;4.18;;;;;;;18.88;81.84;101215.16;6228274;28;20053;-70
2023/05/22 01:40:48;;;;;;;7.47;3.80;;;;;;;18.91;81.92;101212.28;6227831;28;20042;-70
2023/05/22 01:43:50;;;;;;;5.70;3.70;;;;;;;18.87;81.92;101213.47;6228090;28;20054;-70
2023/05/22 01:46:53;;;;;;;5.15;3.25;;;;;;;18.85;81.88;101214.56;6227963;28;20546;-70
2023/05/22 01:49:55;;;;;;;4.38;3.30;;;;;;;18.80;82.50;101203.44;6227560;28;20358;-70
2023/05/22 01:53:07;;;;;;;5.90;3.47;;;;;;;18.74;82.82;101205.63;6227493;28;20378;-70
2023/05/22 01:56:14;;;;;;;5.38;3.78;;;;;;;18.68;82.36;101200.78;6222239;28;20057;-70
2023/05/22 01:59:24;;;;;;;6.55;4.30;;;;;;;18.66;83.38;101204.50;6217286;28;20045;-69
2023/05/22 02:02:28;;;;;;;4.57;3.25;;;;;;;18.62;83.57;101201.28;6210614;28;20188;-70
2023/05/22 02:05:31;;;;;;;4.97;3.67;;;;;;;18.58;84.30;101199.81;6197753;28;20042;-69
2023/05/22 02:08:33;;;;;;;6.68;4.10;;;;;;;18.52;84.50;101203.81;6219965;28;20076;-69
2023/05/22 02:11:38;;;;;;;5.13;3.72;;;;;;;18.51;84.75;101202.13;6227090;28;20327;-70
2023/05/22 02:14:40;;;;;;;4.72;3.85;;;;;;;18.49;85.14;101198.75;6216871;28;20050;-70
2023/05/22 02:17:44;;;;;;;5.25;3.15;;;;;;;18.46;85.15;101195.47;6202851;28;20053;-70
2023/05/22 02:20:46;;;;;;;6.25;4.25;;;;;;;18.40;84.91;101191.50;6205176;28;20046;-70
2023/05/22 02:23:47;;;;;;;5.13;3.33;;;;;;;18.40;84.80;101185.31;6226804;28;20057;-70
2023/05/22 02:26:48;;;;;;;6.55;4.55;;;;;;;18.36;84.56;101173.22;6227085;28;20056;-70
2023/05/22 02:29:50;;;;;;;7.60;4.15;;;;;;;18.36;85.00;101176.72;6226713;28;20456;-70
2023/05/22 02:32:53;;;;;;;5.47;3.45;;;;;;;18.33;85.35;101171.63;6216825;28;20438;-70
2023/05/22 02:35:54;;;;;;;4.88;3.30;;;;;;;18.32;85.31;101175.28;6226913;28;20056;-70
2023/05/22 02:38:55;;;;;;;4.88;3.22;;;;;;;18.30;85.28;101173.69;6223604;28;20141;-70
2023/05/22 02:41:57;;;;;;;5.35;3.67;;;;;;;18.27;85.59;101181.94;6222655;28;20053;-69
2023/05/22 02:44:58;;;;;;;6.65;3.95;;;;;;;18.25;84.63;101188.19;6226520;28;20450;-70
2023/05/22 02:48:02;;;;;;;7.07;3.90;;;;;;;18.24;84.11;101170.53;6226571;28;20081;-70
2023/05/22 02:51:03;;;;;;;5.80;3.60;;;;;;;18.19;84.53;101182.53;6223661;28;20042;-70
2023/05/22 02:54:05;;;;;;;6.78;4.15;;;;;;;18.13;83.91;101180.34;6205191;28;20046;-69
2023/05/22 02:57:06;;;;;;;9.07;4.07;;;;;;;18.12;84.70;101171.53;6221984;28;20056;-69
2023/05/22 03:00:10;;;;;;;5.18;3.55;;;;;;;18.12;85.27;101168.88;6202350;28;20046;-69
2023/05/22 03:03:13;;;;;;;7.50;4.35;;;;;;;18.09;85.28;101171.75;6203099;28;20093;-70
2023/05/22 03:06:14;;;;;;;4.72;3.58;;;;;;;18.04;85.38;101168.63;6194004;28;20553;-70
2023/05/22 03:09:15;;;;;;;4.72;3.63;;;;;;;18.04;85.95;101167.78;6185375;28;20046;-69
2023/05/22 03:12:17;;;;;;;5.70;4.32;;;;;;;17.99;85.87;101158.34;6189171;28;20500;-69
2023/05/22 03:15:18;;;;;;;6.85;3.65;;;;;;;17.97;85.95;101162.06;6185343;28;20050;-69
2023/05/22 03:18:21;;;;;;;4.85;3.30;;;;;;;17.97;85.54;101160.25;6185222;28;20046;-69
2023/05/22 03:21:22;;;;;;;5.13;3.58;;;;;;;17.94;85.49;101160.50;6187297;28;20133;-69
2023/05/22 03:24:24;;;;;;;5.55;3.65;;;;;;;17.92;86.52;101161.59;6184641;28;20050;-69
2023/05/22 03:27:26;;;;;;;6.22;3.75;;;;;;;17.87;85.50;101155.78;6183663;28;20487;-69
2023/05/22 03:30:27;;;;;;;7.95;4.35;;;;;;;17.81;86.51;101158.94;6177670;28;20054;-70
2023/05/22 03:33:30;;;;;;;6.72;3.45;;;;;;;17.79;86.73;101164.34;6187204;28;20443;-69
2023/05/22 03:36:33;;;;;;;4.90;3.95;;;;;;;17.79;86.91;101159.03;6188965;28;20049;-70
2023/05/22 03:39:35;;;;;;;6.70;3.78;;;;;;;17.79;86.91;101171.47;6185695;28;20046;-70
2023/05/22 03:42:36;;;;;;;6.72;3.65;;;;;;;17.73;87.00;101159.47;6189926;28;20045;-69
2023/05/22 03:45:37;;;;;;;4.72;3.40;;;;;;;17.74;87.43;101158.53;6186837;28;20099;-69
2023/05/22 03:48:40;;;;;;;5.97;3.25;;;;;;;17.72;87.12;101160.44;6189186;28;20371;-69
2023/05/22 03:51:41;;;;;;;8.50;3.55;;;;;;;17.66;87.70;101159.06;6183736;28;20046;-69
2023/05/22 03:54:42;;;;;;;3.92;3.22;;;;;;;17.64;87.12;101157.53;6185279;28;20359;-69
2023/05/22 03:57:44;;;;;;;6.90;4.03;;;;;;;17.63;87.59;101154.03;6186994;28;20058;-70
2023/05/22 04:00:46;;;;;;;6.90;3.88;;;;;;;17.58;88.63;101158.00;6201556;28;20593;-69
2023/05/22 04:03:48;;;;;;;4.43;3.65;;;;;;;17.59;88.93;101163.19;6195305;28;20054;-69
2023/05/22 04:06:50;;;;;;;6.38;3.78;;;;;;;17.59;88.56;101157.03;6217098;28;20359;-69
2023/05/22 04:09:52;;;;;;;6.45;3.60;;;;;;;17.57;88.43;101165.09;6225010;28;20100;-70
2023/05/22 04:12:53;;;;;;;9.07;4.35;;;;;;;17.56;88.75;101152.78;6225355;28;20439;-69
2023/05/22 04:15:55;;;;;;;5.00;3.58;;;;;;;17.60;89.28;101164.03;6225365;28;20076;-69
2023/05/22 04:19:00;;;;;;;5.60;3.45;;;;;;;17.59;89.47;101159.69;6224965;28;20587;-69
2023/05/22 04:22:01;;;;;;;6.95;3.22;;;;;;;17.59;89.95;101160.53;6225175;28;20510;-70
2023/05/22 04:25:03;;;;;;;4.55;3.45;;;;;;;17.58;90.58;101156.19;6225082;28;20058;-70
2023/05/22 04:28:04;;;;;;;4.72;3.47;;;;;;;17.59;90.38;101163.19;6218427;28;20053;-69
2023/05/22 04:31:06;;;;;;;6.13;3.65;;;;;;;17.61;89.60;101155.94;6211580;28;20057;-70
2023/05/22 04:34:11;;;;;;;9.05;3.50;;;;;;;17.61;90.47;101160.41;6211701;28;20129;-70
2023/05/22 04:37:13;;;;;;;5.75;3.65;;;;;;;17.58;90.11;101164.16;6200663;28;20476;-70
2023/05/22 04:40:15;;;;;;;5.95;3.25;;;;;;;17.61;90.40;101160.41;6200609;28;20566;-70
2023/05/22 04:43:17;;;;;;;4.60;2.95;;;;;;;17.62;90.35;101156.78;6215227;28;20046;-70
2023/05/22 04:46:19;;;;;;;5.97;4.07;;;;;;;17.64;90.45;101154.84;6210138;28;20054;-69
2023/05/22 04:49:23;;;;;;;6.18;3.85;;;;;;;17.64;89.63;101160.19;6200417;28;20042;-69
2023/05/22 04:52:24;;;;;;;7.55;3.88;;;;;;;17.65;87.14;101154.72;6203575;28;20055;-70
2023/05/22 04:55:26;;;;;;;6.53;3.90;;;;;;;17.64;86.70;101157.53;6204927;28;20046;-69
2023/05/22 04:58:28;;;;;;;6.55;3.50;;;;;;;17.72;87.49;101157.78;6221177;28;20056;-69
2023/05/22 05:01:29;;;;;;;7.03;3.83;;;;;;;17.76;87.43;101151.31;6197010;28;20050;-70
2023/05/22 05:04:32;;;;;;;7.63;3.85;;;;;;;17.79;88.81;101159.03;6212924;28;20453;-70
2023/05/22 05:07:37;;;;;;;5.35;3.60;;;;;;;17.77;87.54;101157.47;6209660;28;20648;-69
2023/05/22 05:10:38;;;;;;;4.60;3.05;;;;;;;17.81;88.86;101153.59;6204157;28;20426;-69
2023/05/22 05:13:40;;;;;;;6.30;3.65;;;;;;;17.81;88.11;101158.94;6206148;28;20053;-70
2023/05/22 05:16:41;;;;;;;4.85;3.70;;;;;;;17.81;88.44;101164.25;6228701;28;20046;-70
2023/05/22 05:19:44;;;;;;;8.15;3.42;;;;;;;17.82;88.54;101161.47;6228654;28;20347;-70
2023/05/22 05:22:45;;;;;;;5.22;3.58;;;;;;;17.85;88.67;101158.56;6228431;28;20053;-70
2023/05/22 05:25:47;;;;;;;5.35;3.20;;;;;;;17.84;88.81;101158.66;6220611;28;20104;-70
2023/05/22 05:28:48;;;;;;;5.75;3.33;;;;;;;17.82;86.92;101158.78;6212520;28;20054;-70
2023/05/22 05:31:49;;;;;;;7.90;3.72;;;;;;;17.87;89.03;101153.97;6203845;28;20053;-70
2023/05/22 05:34:52;;;;;;;5.95;3.70;;;;;;;17.82;86.23;101155.28;6207328;28;20045;-70
2023/05/22 05:37:53;;;;;;;8.38;3.50;;;;;;;17.90;88.06;101153.75;6228202;28;20050;-69
2023/05/22 05:40:55;;;;;;;5.60;3.08;;;;;;;17.93;87.48;101153.47;6228116;28;20057;-70
2023/05/22 05:43:58;;;;;;;6.15;3.35;;;;;;;17.96;87.77;101149.75;6227897;28;20049;-70
2023/05/22 05:47:00;;;;;;;6.40;4.20;;;;;;;17.96;85.58;101155.06;6228113;28;20046;-70
2023/05/22 05:50:03;;;;;;;5.95;3.35;;;;;;;18.03;85.74;101150.09;6227634;28;20052;-70
2023/05/22 05:53:05;;;;;;;5.72;3.35;;;;;;;18.06;87.54;101149.88;6221112;28;20043;-70
2023/05/22 05:56:08;;;;;;;5.10;3.30;;;;;;;18.07;85.50;101154.22;6204870;28;20046;-70
2023/05/22 05:59:09;;;;;;;5.82;3.50;;;;;;;18.09;85.68;101146.97;6202882;28;20132;-69
2023/05/22 06:02:11;;;;;;;5.40;3.50;;;;;;;18.11;87.48;101155.66;6202614;28;20054;-70
2023/05/22 06:05:16;;;;;;;7.10;3.42;;;;;;;18.14;84.72;101150.97;6209351;28;20097;-70
2023/05/22 06:08:18;;;;;;;5.45;3.40;;;;;;;18.19;86.71;101147.94;6203060;28;20046;-70
2023/05/22 06:11:20;;;;;;;5.15;3.30;;;;;;;18.20;85.73;101153.13;6202200;28;20043;-69
2023/05/22 06:14:22;;;;;;;4.20;3.20;;;;;;;18.22;86.24;101153.03;6203342;28;20366;-70
2023/05/22 06:17:24;;;;;;;4.93;3.47;;;;;;;18.20;87.26;101142.50;6218512;28;20331;-70
2023/05/22 06:20:26;;;;;;;6.35;3.10;;;;;;;18.21;84.98;101144.22;6226690;28;20052;-70
2023/05/22 06:23:28;;;;;;;6.18;3.75;;;;;;;18.25;85.33;101145.63;6226896;28;20347;-70
2023/05/22 06:26:30;;;;;;;6.78;3.70;;;;;;;18.33;86.67;101149.50;6194800;28;20042;-70
2023/05/22 06:29:31;;;;;;;6.07;3.30;;;;;;;18.33;84.25;101134.38;6201783;28;20055;-70
2023/05/22 06:32:33;;;;;;;6.75;3.63;;;;;;;18.40;86.53;101145.41;6201877;28;20336;-70
2023/05/22 06:35:35;;;;;;;5.05;3.33;;;;;;;18.46;85.42;101142.25;6201935;28;20055;-70
2023/05/22 06:38:38;;;;;;;8.40;4.10;;;;;;;18.51;83.61;101146.22;6202278;28;20054;-70
2023/05/22 06:41:39;;;;;;;6.63;3.60;;;;;;;18.59;86.33;101142.09;6226799;28;20053;-70
2023/05/22 06:44:40;;;;;;;6.18;3.47;;;;;;;18.59;85.95;101147.44;6226675;28;20057;-70
2023/05/22 06:47:41;;;;;;;7.20;4.35;;;;;;;18.61;82.78;101148.97;6219945;28;20057;-69
2023/05/22 06:50:44;;;;;;;6.30;3.45;;;;;;;18.65;85.15;101153.09;6225724;28;20351;-70
2023/05/22 06:53:45;;;;;;;6.53;3.78;;;;;;;18.69;84.05;101153.72;6226487;28;20042;-69
2023/05/22 06:56:47;;;;;;;6.75;4.05;;;;;;;18.71;83.63;101159.75;6215396;28;20058;-69
2023/05/22 06:59:48;;;;;;;5.35;3.60;;;;;;;18.73;85.04;101174.66;6225623;28;20409;-69
2023/05/22 07:02:49;;;;;;;5.43;3.40;;;;;;;18.75;82.54;101171.84;6218180;28;20049;-69
2023/05/22 07:05:56;;;;;;;4.97;2.97;;;;;;;18.78;84.59;101174.28;6206155;28;20064;-70
2023/05/22 07:08:57;;;;;;;7.22;3.28;;;;;;;18.80;85.14;101179.47;6225582;28;20049;-70
2023/05/22 07:11:59;;;;;;;5.47;3.67;;;;;;;18.81;88.12;101176.72;6218057;28;20050;-69
2023/05/22 07:15:00;;;;;;;6.07;3.38;;;;;;;18.85;85.08;101172.81;6225306;28;20485;-69
2023/05/22 07:18:02;;;;;;;10.25;3.53;;;;;;;18.92;84.12;101171.34;6220414;28;20447;-69
2023/05/22 07:21:05;;;;;;;7.88;3.85;;;;;;;19.01;85.77;101167.06;6216092;28;20048;-70
2023/05/22 07:24:07;;;;;;;4.15;3.20;;;;;;;19.06;85.63;101172.88;6218609;28;20050;-69
2023/05/22 07:27:10;;;;;;;6.63;3.05;;;;;;;19.14;87.39;101162.44;6205106;28;20458;-70
2023/05/22 07:30:12;;;;;;;4.30;3.28;;;;;;;19.19;86.46;101168.22;6195352;28;20050;-70
2023/05/22 07:33:13;;;;;;;6.65;3.30;;;;;;;19.23;88.61;101171.50;6213181;28;20049;-70
2023/05/22 07:36:17;;;;;;;6.72;3.10;;;;;;;19.27;87.85;101165.78;6207781;28;20097;-69
2023/05/22 07:39:19;;;;;;;5.47;3.38;;;;;;;19.37;86.42;101165.00;6217103;28;20050;-70
2023/05/22 07:42:20;;;;;;;5.43;3.50;;;;;;;19.43;85.89;101167.16;6218354;28;20042;-70
2023/05/22 07:45:21;;;;;;;5.45;3.78;;;;;;;19.49;86.73;101166.66;6214448;28;20053;-70
2023/05/22 07:48:23;;;;;;;5.88;3.70;;;;;;;19.56;86.31;101172.28;6209928;28;20050;-70
2023/05/22 07:51:25;;;;;;;6.53;3.67;;;;;;;19.61;84.82;101173.63;6215525;28;20046;-70
2023/05/22 07:54:27;;;;;;;7.00;3.60;;;;;;;19.67;85.81;101165.13;6217199;28;20038;-70
2023/05/22 07:57:29;;;;;;;5.68;3.22;;;;;;;19.71;86.92;101165.69;6193176;28;20054;-70
2023/05/22 08:00:31;;;;;;;6.10;3.45;;;;;;;19.77;86.19;101168.69;6200833;28;20047;-70
2023/05/22 08:03:32;;;;;;;8.80;3.85;;;;;;;19.85;87.05;101175.16;6219789;28;20047;-70
2023/05/22 08:06:35;;;;;;;4.82;3.40;;;;;;;19.89;86.03;101173.94;6213995;28;20058;-70
2023/05/22 08:09:36;;;;;;;5.55;3.53;;;;;;;19.93;87.17;101164.69;6217549;28;20057;-70
2023/05/22 08:12:38;;;;;;;7.25;4.20;;;;;;;19.98;83.43;101175.81;6225306;28;20045;-69
2023/05/22 08:15:39;;;;;;;5.30;3.58;;;;;;;20.05;84.06;101168.97;6220249;28;20057;-70
2023/05/22 08:18:40;;;;;;;5.85;3.65;;;;;;;20.09;84.30;101165.06;6224660;28;20049;-70
2023/05/22 08:21:43;;;;;;;5.80;3.83;;;;;;;20.10;85.79;101165.91;6225118;28;20073;-70
2023/05/22 08:24:45;;;;;;;4.35;3.25;;;;;;;20.10;84.32;101165.91;6219677;28;20053;-70
2023/05/22 08:27:46;;;;;;;5.80;3.42;;;;;;;20.13;86.50;101154.97;6229954;28;20050;-70
2023/05/22 08:30:47;;;;;;;6.75;3.78;;;;;;;20.17;86.16;101159.09;6229047;28;20049;-70
2023/05/22 08:33:49;;;;;;;7.20;3.25;;;;;;;20.25;86.91;101153.88;6229633;28;20050;-70
2023/05/22 08:36:52;;;;;;;8.50;4.18;;;;;;;20.33;83.33;101155.91;6209636;28;20066;-70
2023/05/22 08:39:53;;;;;;;6.40;3.60;;;;;;;20.32;84.55;101151.53;6204741;28;20046;-70
2023/05/22 08:42:56;;;;;;;4.78;3.65;;;;;;;20.34;88.33;101146.91;6205128;28;20042;-70
2023/05/22 08:46:03;;;;;;;6.05;3.53;;;;;;;20.40;81.77;101147.22;6205206;28;20185;-71
2023/05/22 08:49:05;;;;;;;7.50;3.83;;;;;;;20.41;84.16;101146.22;6209097;28;20046;-71
2023/05/22 08:52:12;;;;;;;6.03;3.70;;;;;;;20.47;85.23;101143.03;6225443;28;20164;-71
2023/05/22 08:55:14;;;;;;;5.25;3.47;;;;;;;20.58;83.17;101143.94;6229187;28;20042;-71
2023/05/22 08:58:16;;;;;;;7.03;3.80;;;;;;;20.64;84.95;101136.22;6218557;28;20057;-71
2023/05/22 09:01:18;;;;;;;5.85;3.55;;;;;;;20.73;85.40;101138.06;6203700;28;20053;-71
2023/05/22 09:04:22;;;;;;;4.57;3.45;;;;;;;20.83;83.01;101132.72;6204359;28;20054;-71
2023/05/22 09:07:26;;;;;;;6.32;4.28;;;;;;;20.89;84.10;101134.84;6204664;28;20053;-71
2023/05/22 09:10:28;;;;;;;6.93;3.45;;;;;;;20.93;82.64;101135.41;6219862;28;20073;-71
2023/05/22 09:13:30;;;;;;;6.38;3.88;;;;;;;21.24;81.36;101133.44;6196599;28;20049;-70
2023/05/22 09:16:32;;;;;;;6.60;3.58;;;;;;;21.22;82.46;101133.59;6204257;28;20100;-67
2023/05/22 09:19:33;;;;;;;5.25;3.67;;;;;;;21.20;83.03;101132.88;6203642;28;20046;-70
2023/05/22 09:22:37;;;;;;;6.65;3.60;;;;;;;21.29;80.53;101126.66;6204429;28;20065;-70
2023/05/22 09:25:41;;;;;;;5.68;4.03;;;;;;;21.44;83.58;101120.94;6204263;28;20046;-70
2023/05/22 09:28:43;;;;;;;6.78;4.25;;;;;;;21.51;83.61;101114.84;6221145;28;20046;-69
2023/05/22 09:31:45;;;;;;;5.97;3.53;;;;;;;21.49;82.58;101114.16;6212333;28;20061;-70
2023/05/22 09:34:46;;;;;;;5.55;3.58;;;;;;;21.75;80.18;101105.50;6213445;28;20061;-69
2023/05/22 09:37:49;;;;;;;6.82;4.45;;;;;;;21.96;79.66;101102.63;6211789;28;20363;-70
2023/05/22 09:40:53;;;;;;;7.78;4.53;;;;;;;22.00;77.91;101104.03;6207406;28;20050;-70
2023/05/22 09:43:54;;;;;;;5.65;3.60;;;;;;;22.06;78.91;101098.06;6203617;28;20053;-70
2023/05/22 09:46:56;;;;;;;5.55;3.40;;;;;;;22.20;75.59;101099.44;6203386;28;20050;-70
2023/05/22 09:49:58;;;;;;;5.50;3.50;;;;;;;22.25;76.11;101094.47;6202449;28;20049;-70
2023/05/22 09:53:03;;;;;;;5.97;3.75;;;;;;;22.24;72.94;101090.97;6213773;28;20457;-70
2023/05/22 09:56:12;;;;;;;6.68;3.63;;;;;;;22.41;70.83;101089.31;6227503;28;20052;-70
2023/05/22 09:59:17;;;;;;;9.75;4.80;;;;;;;22.56;71.83;101091.47;6223175;28;20042;-71
2023/05/22 10:02:20;;;;;;;7.00;3.90;;;;;;;22.51;73.67;101084.75;6227574;28;20049;-70
2023/05/22 10:05:22;;;;;;;5.78;3.50;;;;;;;22.49;73.63;101086.75;6225633;28;20049;-70
2023/05/22 10:08:28;;;;;;;11.77;4.65;;;;;;;22.58;74.43;101082.31;6216465;28;20060;-70
2023/05/22 10:11:31;;;;;;;5.88;3.67;;;;;;;22.65;73.18;101080.69;6206787;28;20046;-70
2023/05/22 10:14:34;;;;;;;6.88;3.75;;;;;;;22.71;75.16;101082.78;6203222;28;20065;-70
2023/05/22 10:17:37;;;;;;;7.28;3.78;;;;;;;22.76;73.91;101080.50;6205157;28;20047;-71
2023/05/22 10:20:38;;;;;;;6.45;3.17;;;;;;;22.89;73.93;101072.09;6210826;28;20077;-71
2023/05/22 10:23:42;;;;;;;4.82;3.17;;;;;;;22.98;76.04;101073.00;6209455;28;20050;-71
2023/05/22 10:26:44;;;;;;;8.15;3.75;;;;;;;23.36;70.95;101070.97;6202767;28;20069;-70
2023/05/22 10:29:50;;;;;;;4.40;3.35;;;;;;;23.49;68.95;101072.22;6204078;28;20057;-71
2023/05/22 10:32:56;;;;;;;3.95;3.35;;;;;;;23.66;67.73;101065.13;6226990;28;20053;-70
2023/05/22 10:36:02;;;;;;;5.13;3.30;;;;;;;23.72;65.56;101061.81;6224914;28;20042;-69
2023/05/22 10:39:24;;;;;;;6.28;3.63;;;;;;;23.87;67.79;101059.38;6224105;28;20435;-70
2023/05/22 10:42:29;;;;;;;4.57;3.53;;;;;;;24.16;63.68;101066.19;6226422;28;20046;-70
2023/05/22 10:45:31;;;;;;;5.32;3.22;;;;;;;24.24;63.02;101064.38;6210710;28;20494;-70
2023/05/22 10:48:37;;;;;;;4.78;3.38;;;;;;;24.37;64.76;101066.63;6224583;28;20129;-70
2023/05/22 10:51:39;;;;;;;5.40;3.58;;;;;;;24.39;63.69;101058.41;6195591;28;20129;-70
2023/05/22 10:54:42;;;;;;;5.47;3.80;;;;;;;24.32;65.45;101052.81;6201974;28;20325;-70
2023/05/22 10:57:44;;;;;;;5.07;3.58;;;;;;;24.36;64.88;101046.13;6210234;28;20065;-70
2023/05/22 11:00:45;;;;;;;5.20;3.15;;;;;;;24.40;62.36;101052.88;6203299;28;20054;-70
2023/05/22 11:03:55;;;;;;;5.55;3.33;;;;;;;24.49;63.84;101051.06;6226440;28;20052;-69
2023/05/22 11:07:03;;;;;;;;;;;;;;;24.80;63.03;101041.34;6226586;28;20045;-70
2023/05/22 11:10:06;;;;;;;5.65;3.65;;;;;;;25.00;62.11;101049.06;6221251;28;19928;-70
2023/05/22 11:13:11;;;;;;;6.75;3.40;;;;;;;25.07;59.71;101050.06;6216865;28;20049;-70
2023/05/22 11:16:15;;;;;;;6.32;3.75;;;;;;;25.25;58.16;101041.84;6219070;28;20359;-71
2023/05/22 11:19:21;;;;;;;4.60;3.58;;;;;;;25.15;59.15;101047.41;6210500;28;20042;-70
2023/05/22 11:22:23;;;;;;;6.00;3.15;;;;;;;25.06;59.90;101038.47;6207759;28;20042;-70
2023/05/22 11:25:27;;;;;;;4.15;3.22;;;;;;;24.91;60.63;101039.34;6215984;28;20039;-70
2023/05/22 11:28:30;;;;;;;5.70;3.47;;;;;;;24.72;60.53;101030.59;6211560;28;20053;-70
2023/05/22 11:31:32;;;;;;;5.72;3.10;;;;;;;24.55;59.22;101037.78;6213412;28;20049;-70
2023/05/22 11:34:33;;;;;;;5.47;3.55;;;;;;;24.35;61.26;101035.56;6205426;28;20046;-70
2023/05/22 11:37:38;;;;;;;4.68;3.40;;;;;;;24.23;63.42;101035.84;6217717;28;20046;-71
2023/05/22 11:40:40;;;;;;;4.07;2.97;;;;;;;24.04;64.66;101036.13;6225520;28;20049;-71
2023/05/22 11:43:42;;;;;;;6.15;3.45;;;;;;;23.98;67.19;101034.94;6224722;28;20038;-70
2023/05/22 11:46:44;;;;;;;8.38;3.22;;;;;;;24.03;64.21;101039.81;6225479;28;20367;-70
2023/05/22 11:49:46;;;;;;;4.47;3.28;;;;;;;24.00;67.67;101029.41;6204086;28;20047;-71
2023/05/22 11:52:48;;;;;;;6.32;3.58;;;;;;;23.94;77.21;101027.38;6201059;28;20359;-71
2023/05/22 11:55:50;;;;;;;6.18;3.80;;;;;;;23.90;82.68;101026.00;6202911;28;20081;-71
2023/05/22 11:58:52;;;;;;;11.23;5.47;;;;;;;23.82;83.14;101028.66;6194649;28;20054;-71
2023/05/22 12:01:53;;;;;;;5.20;3.58;;;;;;;23.82;79.03;101029.50;6200277;28;20048;-71
2023/05/22 12:04:55;;;;;;;5.25;3.50;;;;;;;23.83;81.08;101024.97;6201777;28;20053;-70
2023/05/22 12:07:56;;;;;;;6.97;4.00;;;;;;;23.74;80.13;101027.59;6207168;28;20136;-71
2023/05/22 12:10:59;;;;;;;4.47;3.47;;;;;;;23.62;80.46;101017.28;6211795;28;20049;-71
2023/05/22 12:14:01;;;;;;;6.07;3.90;;;;;;;23.55;74.37;101022.44;6209269;28;20045;-71
2023/05/22 12:17:03;;;;;;;5.30;3.45;;;;;;;23.58;71.92;101015.94;6199200;28;20046;-71
2023/05/22 12:20:06;;;;;;;5.90;3.50;;;;;;;23.51;73.49;101016.56;6204962;28;20536;-71
2023/05/22 12:23:11;;;;;;;9.93;3.72;;;;;;;23.52;72.24;101012.03;6204596;28;20053;-71
2023/05/22 12:26:13;;;;;;;5.03;3.50;;;;;;;23.45;75.91;101013.69;6210005;28;20046;-70
2023/05/22 12:29:15;;;;;;;4.93;3.42;;;;;;;23.41;75.70;101009.63;6220718;28;20427;-71
2023/05/22 12:32:17;;;;;;;7.75;4.05;;;;;;;23.39;79.58;101009.78;6207530;28;20356;-70
2023/05/22 12:35:18;;;;;;;7.88;3.80;;;;;;;23.48;73.04;101005.28;6207485;28;20042;-70
2023/05/22 12:38:25;;;;;;;5.00;3.58;;;;;;;23.45;75.23;101003.78;6209277;28;20354;-70
2023/05/22 12:41:27;;;;;;;11.70;3.75;;;;;;;23.44;79.19;101012.00;6200848;28;20343;-70
2023/05/22 12:44:29;;;;;;;8.07;3.15;;;;;;;23.43;82.63;101000.41;6204817;28;20435;-70
2023/05/22 12:47:30;;;;;;;5.55;3.83;;;;;;;23.47;83.56;100996.41;6206619;28;20042;-71
2023/05/22 12:50:32;;;;;;;8.13;3.85;;;;;;;23.48;81.74;100992.75;6197525;28;20053;-70
2023/05/22 12:53:33;;;;;;;5.93;3.38;;;;;;;23.49;82.01;100994.41;6208657;28;20046;-70
2023/05/22 12:56:36;;;;;;;5.40;3.90;;;;;;;23.54;81.90;100984.03;6214798;28;20351;-70
2023/05/22 12:59:37;;;;;;;5.65;3.53;;;;;;;23.65;79.54;100987.47;6204020;28;20053;-70
2023/05/22 13:02:38;;;;;;;6.22;3.88;;;;;;;23.71;78.68;100982.31;6208960;28;20046;-70
2023/05/22 13:05:40;;;;;;;6.03;4.15;;;;;;;23.96;77.52;100988.59;6211284;28;20049;-70
2023/05/22 13:08:41;;;;;;;6.05;3.35;;;;;;;24.21;68.87;100977.91;6213614;28;20050;-70
2023/05/22 13:11:44;;;;;;;7.93;3.60;;;;;;;24.29;74.80;100981.44;6227569;28;20045;-71
2023/05/22 13:14:45;;;;;;;5.35;3.90;;;;;;;24.28;76.16;100978.94;6214965;28;20046;-70
2023/05/22 13:17:47;;;;;;;5.63;3.42;;;;;;;24.34;73.69;100980.13;6204685;28;20050;-70
2023/05/22 13:20:48;;;;;;;7.10;4.00;;;;;;;24.50;71.35;100974.81;6215930;28;20050;-70
2023/05/22 13:23:49;;;;;;;4.68;3.70;;;;;;;24.58;73.48;100972.13;6201321;28;20046;-70
2023/05/22 13:26:52;;;;;;;5.25;3.58;;;;;;;24.79;70.87;100974.28;6216534;28;20054;-70
2023/05/22 13:29:53;;;;;;;6.32;4.15;;;;;;;25.02;68.94;100969.06;6219632;28;20121;-70
2023/05/22 13:32:55;;;;;;;6.35;3.65;;;;;;;25.40;65.69;100958.59;6228124;28;20343;-70
2023/05/22 13:35:57;;;;;;;6.97;3.72;;;;;;;25.72;68.16;100955.78;6214059;28;20051;-70
2023/05/22 13:38:58;;;;;;;5.28;3.58;;;;;;;26.09;64.16;100956.94;6223021;28;20053;-70
2023/05/22 13:42:01;;;;;;;5.07;3.80;;;;;;;26.45;57.26;100953.69;6202605;28;20043;-70
2023/05/22 13:45:03;;;;;;;4.90;3.60;;;;;;;26.66;58.75;100951.16;6196305;28;20351;-70
2023/05/22 13:48:04;;;;;;;6.35;3.47;;;;;;;26.91;60.73;100940.97;6215726;28;20046;-70
2023/05/22 13:51:06;;;;;;;5.50;3.90;;;;;;;27.00;56.78;100939.03;6214701;28;20054;-70
2023/05/22 13:54:07;;;;;;;8.63;3.47;;;;;;;27.02;56.02;100937.81;6219627;28;20054;-70
2023/05/22 13:57:10;;;;;;;6.18;3.20;;;;;;;26.68;59.90;100929.41;6212862;28;20483;-70
2023/05/22 14:00:12;;;;;;;7.20;3.92;;;;;;;26.43;59.31;100932.28;6203607;28;20358;-70
2023/05/22 14:03:16;;;;;;;6.47;3.60;;;;;;;26.50;57.34;100921.63;6204838;28;20061;-70
2023/05/22 14:06:17;;;;;;;5.47;3.33;;;;;;;26.75;56.57;100920.41;6197074;28;20046;-70
2023/05/22 14:09:19;;;;;;;4.88;3.60;;;;;;;26.63;58.36;100924.56;6207057;28;20053;-70